Archival Weather

Chicago O'Hare International

Chicago, Illinois (KORD)

Report from: Saturday, November 5, 2022 3:51 AM CDT
Current time: Saturday, March 2, 2024 2:55 AM CST

Current weather – Weather history – Daily summaries
Weather forecast

Present weatherLight rain
Temperature16.7°C (62.1°F)
Dew point14.4°C (57.9°F)
Winds 16 kts (8.2 m/s, 18.4 mph) South (170°)
Wind gusts 23 kts (11.8 m/s, 26.5 mph)
Visibility10 mi. (16.1 km)
Clouds Few clouds 2,100 ft. (640 m)
Scattered clouds 6,000 ft. (1,829 m)
Ceiling: Overcast 11,000 ft. (3,353 m)
Altimeter29.59 in.Hg (1002 mB)
Precipitiation0.02 in. (1 mm)
Precip last 3 hours0.13 in. (3 mm)
Relative humidity86 %
Density altitude823 ft. (251 m)
Sea-level pressure100.2 kPa (1002 mB, 29.58 in.Hg)
Remarks Automated weather observing station with precipitation discriminator
Pressure falling more quickly
Flight conditions Visual Meteorological Conditions
Raw dataKORD 050851Z 17016G23KT 10SM -RA FEW021 SCT060 OVC110 17/14 A2959 RMK AO2 SLP016 P0002 60013 T01670144 58026
An error has occurred. This application may no longer respond until reloaded. Reload 🗙